Lorenzo, Idaho
Current Conditions -  °F | °C
As of 10:21 AM on Friday 19 Dec 2014 (Local Time) from KRXE Reporting Station
Light Snow Light Snow  
Wind Chill: 31°   Ceiling: 1500
Heat Index: 31°   Visibility: 3mi
Dew Point: 31°   Wind: 3mph
Humidity: 100%   Direction: 190°S
Pressure: 30.14"   Gusts: NA
Location:  43.6749°N, 111.89°W
Report Text: KRXE 191721Z AUTO 19003KT 3SM -SN BR SCT006 OVC015 M01/M01 A3014 RMK AO2 P0001 T10061006
Loading
Personal Weather Stations






























Interactive Weather Map New forecast layout! Learn more

10-Day Weather Forecast

Advertisements
Track Severe Weather on mobile